Time;durP1;ratioP1;P1;durP2;ratioP2;P2;SDS_P1;SDS_P2;PMS_P1;PMS_P2;Temp;Humidity;BMP_temperature;BMP_pressure;BME280_temperature;BME280_humidity;BME280_pressure;Samples;Min_cycle;Max_cycle;Signal;HPM_P1;HPM_P2
2021/08/29 00:00:41;;;;;;;;;;;20.40;71.60;;;;;;4990191;28;1205;-71
2021/08/29 00:03:06;;;;;;;;;;;20.40;71.60;;;;;;5013178;28;1402;-72
2021/08/29 00:05:31;;;;;;;;;;;20.40;71.60;;;;;;4995746;28;1144;-72
2021/08/29 00:07:57;;;;;;;;;;;20.40;71.60;;;;;;5019705;28;1124;-72
2021/08/29 00:10:22;;;;;;;;;;;20.40;71.50;;;;;;4995100;28;1331;-72
2021/08/29 00:12:48;;;;;;;;;;;20.40;71.60;;;;;;4994111;28;1377;-72
2021/08/29 00:15:13;;;;;;;;;;;20.40;71.60;;;;;;4993628;28;1284;-71
2021/08/29 00:17:39;;;;;;;;;;;20.40;71.60;;;;;;4993695;28;1950;-72
2021/08/29 00:20:04;;;;;;;;;;;20.40;71.60;;;;;;4994678;28;1092;-71
2021/08/29 00:22:30;;;;;;;;;;;20.40;71.60;;;;;;4995305;28;1287;-72
2021/08/29 00:24:55;;;;;;;;;;;20.40;71.60;;;;;;5012874;28;1089;-72
2021/08/29 00:27:21;;;;;;;;;;;20.40;71.60;;;;;;5012951;28;2028;-72
2021/08/29 00:29:46;;;;;;;;;;;20.40;71.60;;;;;;5012848;28;1067;-72
2021/08/29 00:32:13;;;;;;;;;;;20.40;71.60;;;;;;5012863;28;1278;-72
2021/08/29 00:34:38;;;;;;;;;;;20.40;71.60;;;;;;5012479;28;1291;-71
2021/08/29 00:37:04;;;;;;;;;;;20.40;71.60;;;;;;5012932;28;1906;-71
2021/08/29 00:39:29;;;;;;;;;;;20.40;71.60;;;;;;4995187;28;1061;-72
2021/08/29 00:41:54;;;;;;;;;;;20.40;71.60;;;;;;5012706;28;1358;-72
2021/08/29 00:44:20;;;;;;;;;;;20.40;71.70;;;;;;5012589;28;1304;-72
2021/08/29 00:46:45;;;;;;;;;;;20.40;71.60;;;;;;5012726;28;1308;-72
2021/08/29 00:49:12;;;;;;;;;;;20.40;71.70;;;;;;4994879;28;1390;-72
2021/08/29 00:51:37;;;;;;;;;;;20.40;71.60;;;;;;4995157;28;1401;-72
2021/08/29 00:54:02;;;;;;;;;;;20.40;71.70;;;;;;4994679;28;1268;-71
2021/08/29 00:56:28;;;;;;;;;;;20.40;71.70;;;;;;5017980;28;1981;-72
2021/08/29 00:58:54;;;;;;;;;;;20.40;71.70;;;;;;5012601;28;1140;-72
2021/08/29 01:01:20;;;;;;;;;;;20.40;71.60;;;;;;5018227;28;1264;-72
2021/08/29 01:03:46;;;;;;;;;;;20.40;71.70;;;;;;5018486;28;1410;-72
2021/08/29 01:06:38;;;;;;;;;;;20.40;71.70;;;;;;5006562;28;1069;-72
2021/08/29 01:09:05;;;;;;;;;;;20.40;71.70;;;;;;5004894;28;1213;-72
2021/08/29 01:11:31;;;;;;;;;;;20.40;71.70;;;;;;5019271;28;1191;-72
2021/08/29 01:14:00;;;;;;;;;;;20.40;71.70;;;;;;5019076;28;1081;-71
2021/08/29 01:16:28;;;;;;;;;;;20.40;71.70;;;;;;4997841;28;1902;-70
2021/08/29 01:18:54;;;;;;;;;;;20.40;71.60;;;;;;4999491;28;1339;-69
2021/08/29 01:21:29;;;;;;;;;;;20.40;71.70;;;;;;4999034;28;1422;-70
2021/08/29 01:23:55;;;;;;;;;;;20.40;71.80;;;;;;4999453;28;1369;-71
2021/08/29 01:26:29;;;;;;;;;;;20.40;71.70;;;;;;4976785;28;1573;-71
2021/08/29 01:28:55;;;;;;;;;;;20.40;71.70;;;;;;5017544;28;1395;-72
2021/08/29 01:31:21;;;;;;;;;;;20.40;71.80;;;;;;5016552;28;1710;-71
2021/08/29 01:33:47;;;;;;;;;;;20.40;71.70;;;;;;4999526;28;1372;-71
2021/08/29 01:36:13;;;;;;;;;;;20.40;71.70;;;;;;4998680;28;1898;-72
2021/08/29 01:38:38;;;;;;;;;;;20.40;71.70;;;;;;5001635;28;1353;-71
2021/08/29 01:41:04;;;;;;;;;;;20.40;71.70;;;;;;5015272;28;1293;-72
2021/08/29 01:43:29;;;;;;;;;;;20.40;71.70;;;;;;5016556;28;1309;-71
2021/08/29 01:45:54;;;;;;;;;;;20.40;71.70;;;;;;4999282;28;1414;-70
2021/08/29 01:48:20;;;;;;;;;;;20.40;71.70;;;;;;4999895;28;1356;-71
2021/08/29 01:50:45;;;;;;;;;;;20.40;72.50;;;;;;4995434;28;1293;-71
2021/08/29 01:53:11;;;;;;;;;;;20.40;71.80;;;;;;4998933;28;1470;-72
2021/08/29 01:55:36;;;;;;;;;;;20.40;71.80;;;;;;5018105;28;1961;-69
2021/08/29 01:58:02;;;;;;;;;;;20.40;72.50;;;;;;5016283;28;1249;-70
2021/08/29 02:00:27;;;;;;;;;;;20.30;71.70;;;;;;5017479;28;1285;-71
2021/08/29 02:02:52;;;;;;;;;;;20.40;71.80;;;;;;5018725;28;1629;-71
2021/08/29 02:05:18;;;;;;;;;;;20.30;71.70;;;;;;5000307;28;1583;-72
2021/08/29 02:07:45;;;;;;;;;;;20.40;71.80;;;;;;5025873;28;1553;-71
2021/08/29 02:10:11;;;;;;;;;;;20.40;71.80;;;;;;5001613;28;1367;-71
2021/08/29 02:12:37;;;;;;;;;;;20.40;71.80;;;;;;4997971;28;1856;-71
2021/08/29 02:15:05;;;;;;;;;;;20.30;71.70;;;;;;5015566;28;1489;-71
2021/08/29 02:17:30;;;;;;;;;;;20.40;71.80;;;;;;4998219;28;1898;-71
2021/08/29 02:19:56;;;;;;;;;;;20.40;71.80;;;;;;4998311;28;1727;-71
2021/08/29 02:22:22;;;;;;;;;;;20.40;71.80;;;;;;4998428;28;1623;-71
2021/08/29 02:24:47;;;;;;;;;;;20.40;71.80;;;;;;5015309;28;1737;-71
2021/08/29 02:27:14;;;;;;;;;;;20.40;71.80;;;;;;4981762;28;1617;-72
2021/08/29 02:29:40;;;;;;;;;;;20.40;71.90;;;;;;5015467;28;1387;-71
2021/08/29 02:32:05;;;;;;;;;;;20.40;71.80;;;;;;4997852;28;1295;-71
2021/08/29 02:34:31;;;;;;;;;;;20.40;71.80;;;;;;4997592;28;1383;-71
2021/08/29 02:36:56;;;;;;;;;;;20.40;71.80;;;;;;4997889;28;1914;-71
2021/08/29 02:39:22;;;;;;;;;;;20.40;71.80;;;;;;4997681;28;1308;-71
2021/08/29 02:41:48;;;;;;;;;;;20.30;71.80;;;;;;4997599;28;1267;-71
2021/08/29 02:44:13;;;;;;;;;;;20.30;71.80;;;;;;4997473;28;1378;-70
2021/08/29 02:46:39;;;;;;;;;;;20.30;71.80;;;;;;4997733;28;1355;-69
2021/08/29 02:49:05;;;;;;;;;;;20.40;71.80;;;;;;5015366;28;1276;-69
2021/08/29 02:51:30;;;;;;;;;;;20.40;71.80;;;;;;4997757;28;1331;-71
2021/08/29 02:53:57;;;;;;;;;;;20.30;71.80;;;;;;4997053;28;1368;-72
2021/08/29 02:56:22;;;;;;;;;;;20.30;71.80;;;;;;5020468;28;1910;-71
2021/08/29 02:58:48;;;;;;;;;;;20.40;71.90;;;;;;5014945;28;1381;-71
2021/08/29 03:01:13;;;;;;;;;;;20.40;71.90;;;;;;5015104;28;1412;-72
2021/08/29 03:03:39;;;;;;;;;;;20.30;71.80;;;;;;5014438;28;1342;-71
2021/08/29 03:06:04;;;;;;;;;;;20.40;71.90;;;;;;5001382;28;1375;-72
2021/08/29 03:08:30;;;;;;;;;;;20.30;71.80;;;;;;5018088;28;1285;-72
2021/08/29 03:10:56;;;;;;;;;;;20.30;71.80;;;;;;5014611;28;1355;-71
2021/08/29 03:13:21;;;;;;;;;;;20.40;71.90;;;;;;4996685;28;1390;-72
2021/08/29 03:15:46;;;;;;;;;;;20.30;71.80;;;;;;4997167;28;1965;-72
2021/08/29 03:18:12;;;;;;;;;;;20.40;71.90;;;;;;5014445;28;1274;-72
2021/08/29 03:20:37;;;;;;;;;;;20.40;71.90;;;;;;4978042;28;1399;-72
2021/08/29 03:23:03;;;;;;;;;;;20.40;71.90;;;;;;4992753;28;1379;-72
2021/08/29 03:25:29;;;;;;;;;;;20.40;71.90;;;;;;5014527;28;1312;-72
2021/08/29 03:27:54;;;;;;;;;;;20.40;71.90;;;;;;5014244;28;1297;-70
2021/08/29 03:30:57;;;;;;;;;;;20.30;71.80;;;;;;5014610;28;1244;-70
2021/08/29 03:33:22;;;;;;;;;;;20.40;71.90;;;;;;5013858;28;1362;-70
2021/08/29 03:35:48;;;;;;;;;;;20.30;71.90;;;;;;4996458;28;1910;-70
2021/08/29 03:38:15;;;;;;;;;;;20.40;71.90;;;;;;4996581;28;1328;-71
2021/08/29 03:40:41;;;;;;;;;;;20.30;71.90;;;;;;4996664;28;1406;-70
2021/08/29 03:43:06;;;;;;;;;;;20.30;71.80;;;;;;5013979;28;1318;-70
2021/08/29 03:45:32;;;;;;;;;;;20.40;71.90;;;;;;5014022;28;1359;-71
2021/08/29 03:47:57;;;;;;;;;;;20.30;71.90;;;;;;5014129;28;1320;-71
2021/08/29 03:50:23;;;;;;;;;;;20.30;71.90;;;;;;5013617;28;1175;-71
2021/08/29 03:52:48;;;;;;;;;;;20.30;71.90;;;;;;5013871;28;1705;-71
2021/08/29 03:55:14;;;;;;;;;;;20.30;71.90;;;;;;5001623;28;1368;-72
2021/08/29 03:57:39;;;;;;;;;;;20.30;71.90;;;;;;4996298;28;1906;-71
2021/08/29 04:00:05;;;;;;;;;;;20.30;71.90;;;;;;4996198;28;1277;-71
2021/08/29 04:02:30;;;;;;;;;;;20.30;71.90;;;;;;5006842;28;1281;-71
2021/08/29 04:04:56;;;;;;;;;;;20.30;71.90;;;;;;4993893;28;1260;-71
2021/08/29 04:07:21;;;;;;;;;;;20.40;71.90;;;;;;5016048;28;1155;-70
2021/08/29 04:09:47;;;;;;;;;;;20.30;71.90;;;;;;5013935;28;1355;-70
2021/08/29 04:12:12;;;;;;;;;;;20.30;71.90;;;;;;4995980;28;1393;-74
2021/08/29 04:14:38;;;;;;;;;;;20.30;71.90;;;;;;4995798;28;1295;-73
2021/08/29 04:17:03;;;;;;;;;;;20.40;72.00;;;;;;4995889;28;1902;-74
2021/08/29 04:19:29;;;;;;;;;;;20.30;71.90;;;;;;4982448;28;1241;-72
2021/08/29 04:21:54;;;;;;;;;;;20.30;71.90;;;;;;4976293;28;1293;-71
2021/08/29 04:24:20;;;;;;;;;;;20.30;71.90;;;;;;4976081;28;1320;-72
2021/08/29 04:26:45;;;;;;;;;;;20.30;71.90;;;;;;4993761;28;1371;-71
2021/08/29 04:29:11;;;;;;;;;;;20.30;71.90;;;;;;4993700;28;1447;-71
2021/08/29 04:31:36;;;;;;;;;;;20.30;71.90;;;;;;4993698;28;1388;-71
2021/08/29 04:34:03;;;;;;;;;;;20.30;71.90;;;;;;4992981;28;1318;-72
2021/08/29 04:36:29;;;;;;;;;;;20.30;71.90;;;;;;4975735;28;1973;-71
2021/08/29 04:38:54;;;;;;;;;;;20.30;71.90;;;;;;4993471;28;1347;-71
2021/08/29 04:41:21;;;;;;;;;;;20.30;71.90;;;;;;4993550;28;1182;-71
2021/08/29 04:43:46;;;;;;;;;;;20.30;71.90;;;;;;4993180;28;1277;-73
2021/08/29 04:46:14;;;;;;;;;;;20.30;72.00;;;;;;4993477;28;1347;-73
2021/08/29 04:48:40;;;;;;;;;;;20.30;71.90;;;;;;4993276;28;1101;-73
2021/08/29 04:51:05;;;;;;;;;;;20.30;71.90;;;;;;5000287;28;1351;-73
2021/08/29 04:53:30;;;;;;;;;;;20.30;71.90;;;;;;5012451;28;1351;-74
2021/08/29 04:55:56;;;;;;;;;;;20.30;71.90;;;;;;5010936;28;2252;-72
2021/08/29 04:58:21;;;;;;;;;;;20.30;71.90;;;;;;4995487;28;1256;-72
2021/08/29 05:00:47;;;;;;;;;;;20.30;71.90;;;;;;4995367;28;1320;-73
2021/08/29 05:03:12;;;;;;;;;;;20.30;71.90;;;;;;5012355;28;1227;-73
2021/08/29 05:05:38;;;;;;;;;;;20.30;72.00;;;;;;5007430;28;1132;-74
2021/08/29 05:08:03;;;;;;;;;;;20.30;72.00;;;;;;5011754;28;1080;-73
2021/08/29 05:10:28;;;;;;;;;;;20.30;72.00;;;;;;4994078;28;1076;-73
2021/08/29 05:12:54;;;;;;;;;;;20.30;72.00;;;;;;5007008;28;1304;-73
2021/08/29 05:15:19;;;;;;;;;;;20.30;72.00;;;;;;4994970;28;1320;-73
2021/08/29 05:17:45;;;;;;;;;;;20.30;72.00;;;;;;5012498;28;1949;-73
2021/08/29 05:20:10;;;;;;;;;;;20.30;72.00;;;;;;5012689;28;1143;-73
2021/08/29 05:22:36;;;;;;;;;;;20.30;72.00;;;;;;5012617;28;1414;-73
2021/08/29 05:25:01;;;;;;;;;;;20.30;72.00;;;;;;4994890;28;1543;-71
2021/08/29 05:27:27;;;;;;;;;;;20.30;72.00;;;;;;5012934;28;1258;-72
2021/08/29 05:29:52;;;;;;;;;;;20.30;72.00;;;;;;5012914;28;1118;-72
2021/08/29 05:32:18;;;;;;;;;;;20.30;72.00;;;;;;5012539;28;1710;-72
2021/08/29 05:34:43;;;;;;;;;;;20.30;72.00;;;;;;5012087;28;1336;-71
2021/08/29 05:37:08;;;;;;;;;;;20.30;72.00;;;;;;5013049;28;1907;-71
2021/08/29 05:39:34;;;;;;;;;;;20.30;72.00;;;;;;5012497;28;1256;-71
2021/08/29 05:41:59;;;;;;;;;;;20.30;72.00;;;;;;5012801;28;1350;-73
2021/08/29 05:44:25;;;;;;;;;;;20.30;72.00;;;;;;5012276;28;1328;-72
2021/08/29 05:46:50;;;;;;;;;;;20.30;72.00;;;;;;5013291;28;1256;-72
2021/08/29 05:49:15;;;;;;;;;;;20.30;72.00;;;;;;5016026;28;1295;-72
2021/08/29 05:51:41;;;;;;;;;;;20.30;72.00;;;;;;5016524;28;1360;-72
2021/08/29 05:54:06;;;;;;;;;;;20.30;72.00;;;;;;5000250;28;1475;-72
2021/08/29 05:56:32;;;;;;;;;;;20.30;72.00;;;;;;5021234;28;1891;-71
2021/08/29 05:58:57;;;;;;;;;;;20.30;72.00;;;;;;5016016;28;1198;-70
2021/08/29 06:01:23;;;;;;;;;;;20.30;71.90;;;;;;5016066;28;1351;-72
2021/08/29 06:03:48;;;;;;;;;;;20.30;72.20;;;;;;5015045;28;1287;-71
2021/08/29 06:06:13;;;;;;;;;;;20.40;72.60;;;;;;5020480;28;1375;-71
2021/08/29 06:08:39;;;;;;;;;;;20.40;72.60;;;;;;5016658;28;1295;-72
2021/08/29 06:11:07;;;;;;;;;;;20.40;72.60;;;;;;5015249;28;1268;-71
2021/08/29 06:13:33;;;;;;;;;;;20.40;72.80;;;;;;5013701;28;1365;-71
2021/08/29 06:15:58;;;;;;;;;;;20.40;72.80;;;;;;5015149;28;1958;-71
2021/08/29 06:18:24;;;;;;;;;;;20.40;72.90;;;;;;5015379;28;1286;-71
2021/08/29 06:20:49;;;;;;;;;;;20.40;72.70;;;;;;5000220;28;1796;-70
2021/08/29 06:23:15;;;;;;;;;;;20.40;72.80;;;;;;5009245;28;1922;-69
2021/08/29 06:25:40;;;;;;;;;;;20.40;72.80;;;;;;4995702;28;1066;-70
2021/08/29 06:28:05;;;;;;;;;;;20.40;72.60;;;;;;5014462;28;1130;-70
2021/08/29 06:30:31;;;;;;;;;;;20.40;72.50;;;;;;5014696;28;1265;-69
2021/08/29 06:32:56;;;;;;;;;;;20.40;72.50;;;;;;5009922;28;1279;-69
2021/08/29 06:35:22;;;;;;;;;;;20.40;72.50;;;;;;4994834;28;1327;-69
2021/08/29 06:37:47;;;;;;;;;;;20.40;72.50;;;;;;4994632;28;2017;-71
2021/08/29 06:40:13;;;;;;;;;;;20.40;72.40;;;;;;4977619;28;1327;-71
2021/08/29 06:42:38;;;;;;;;;;;20.40;72.40;;;;;;4977545;28;1294;-71
2021/08/29 06:45:04;;;;;;;;;;;20.40;72.40;;;;;;4977280;28;1341;-68
2021/08/29 06:47:29;;;;;;;;;;;20.40;72.30;;;;;;4994544;28;1336;-69
2021/08/29 06:49:55;;;;;;;;;;;20.40;72.40;;;;;;4994649;28;1045;-70
2021/08/29 06:52:20;;;;;;;;;;;20.40;72.40;;;;;;5011486;28;1372;-70
2021/08/29 06:54:46;;;;;;;;;;;20.40;72.40;;;;;;5017414;28;1336;-72
2021/08/29 06:57:11;;;;;;;;;;;20.40;72.30;;;;;;5018024;28;1938;-72
2021/08/29 06:59:36;;;;;;;;;;;20.40;72.30;;;;;;5014981;28;1654;-72
2021/08/29 07:02:02;;;;;;;;;;;20.40;72.30;;;;;;4997316;28;1760;-72
2021/08/29 07:04:28;;;;;;;;;;;20.40;72.30;;;;;;5014627;28;1279;-72
2021/08/29 07:06:53;;;;;;;;;;;20.40;72.30;;;;;;5021986;28;1190;-73
2021/08/29 07:09:18;;;;;;;;;;;20.40;72.30;;;;;;5014861;28;1397;-73
2021/08/29 07:11:44;;;;;;;;;;;20.40;72.30;;;;;;5014726;28;1323;-73
2021/08/29 07:14:09;;;;;;;;;;;20.40;72.30;;;;;;5004715;28;1325;-73
2021/08/29 07:16:35;;;;;;;;;;;20.40;72.30;;;;;;4994692;28;1948;-73
2021/08/29 07:19:00;;;;;;;;;;;20.40;72.30;;;;;;4994905;28;1049;-73
2021/08/29 07:21:26;;;;;;;;;;;20.40;72.30;;;;;;4977614;28;1394;-72
2021/08/29 07:23:51;;;;;;;;;;;20.40;72.30;;;;;;4994513;28;1579;-72
2021/08/29 07:26:16;;;;;;;;;;;20.40;72.20;;;;;;4994800;28;1356;-73
2021/08/29 07:28:42;;;;;;;;;;;20.40;72.20;;;;;;5004315;28;1064;-73
2021/08/29 07:31:08;;;;;;;;;;;20.40;72.20;;;;;;5006862;28;1010;-74
2021/08/29 07:33:33;;;;;;;;;;;20.40;72.20;;;;;;4976894;28;1317;-72
2021/08/29 07:35:58;;;;;;;;;;;20.40;72.20;;;;;;4994770;28;1902;-73
2021/08/29 07:38:24;;;;;;;;;;;20.40;72.20;;;;;;4994747;28;1269;-73
2021/08/29 07:40:49;;;;;;;;;;;20.40;72.20;;;;;;4977252;28;1323;-73
2021/08/29 07:43:15;;;;;;;;;;;20.40;72.20;;;;;;4994275;28;1335;-73
2021/08/29 07:45:40;;;;;;;;;;;20.40;72.20;;;;;;4994266;28;1280;-72
2021/08/29 07:48:06;;;;;;;;;;;20.40;72.10;;;;;;4994388;28;1252;-73
2021/08/29 07:50:31;;;;;;;;;;;20.40;72.20;;;;;;4996724;28;1270;-73
2021/08/29 07:52:56;;;;;;;;;;;20.40;72.20;;;;;;5013916;28;1302;-72
2021/08/29 07:55:22;;;;;;;;;;;20.40;72.20;;;;;;5019031;28;1131;-73
2021/08/29 07:57:47;;;;;;;;;;;20.40;72.20;;;;;;5013834;28;1907;-73
2021/08/29 08:00:13;;;;;;;;;;;20.40;72.20;;;;;;5013629;28;1067;-72
2021/08/29 08:02:41;;;;;;;;;;;20.40;72.20;;;;;;5014123;28;1385;-75
2021/08/29 08:05:07;;;;;;;;;;;20.40;72.20;;;;;;5013423;28;1319;-73
2021/08/29 08:07:32;;;;;;;;;;;20.40;73.00;;;;;;5020850;28;1084;-73
2021/08/29 08:09:58;;;;;;;;;;;20.40;72.20;;;;;;5012768;28;1164;-73
2021/08/29 08:12:23;;;;;;;;;;;20.40;72.30;;;;;;5013581;28;1427;-73
2021/08/29 08:14:49;;;;;;;;;;;20.40;72.30;;;;;;5013185;28;1305;-73
2021/08/29 08:17:14;;;;;;;;;;;20.40;72.30;;;;;;4996182;28;1895;-73
2021/08/29 08:19:39;;;;;;;;;;;20.40;72.50;;;;;;4995889;28;1399;-73
2021/08/29 08:22:05;;;;;;;;;;;20.40;72.30;;;;;;5013870;28;1335;-73
2021/08/29 08:24:30;;;;;;;;;;;20.40;72.40;;;;;;5013037;28;1214;-73
2021/08/29 08:26:56;;;;;;;;;;;20.40;72.30;;;;;;5013513;28;1064;-71
2021/08/29 08:29:21;;;;;;;;;;;20.40;72.40;;;;;;5013655;28;1115;-72
2021/08/29 08:31:46;;;;;;;;;;;20.40;72.40;;;;;;5013236;28;1244;-72
2021/08/29 08:34:12;;;;;;;;;;;20.40;72.30;;;;;;5012933;28;1148;-71
2021/08/29 08:36:37;;;;;;;;;;;20.40;72.30;;;;;;5013158;28;1952;-72
2021/08/29 08:39:03;;;;;;;;;;;20.40;72.30;;;;;;5013230;28;1347;-73
2021/08/29 08:41:28;;;;;;;;;;;20.40;72.30;;;;;;5013304;28;1351;-71
2021/08/29 08:43:54;;;;;;;;;;;20.40;72.40;;;;;;5013163;28;1430;-71
2021/08/29 08:46:19;;;;;;;;;;;20.40;72.30;;;;;;5000106;28;1324;-72
2021/08/29 08:48:45;;;;;;;;;;;20.40;72.30;;;;;;4993451;28;1369;-71
2021/08/29 08:51:10;;;;;;;;;;;20.40;72.30;;;;;;5001378;28;1268;-72
2021/08/29 08:53:36;;;;;;;;;;;20.40;72.50;;;;;;5012711;28;1184;-72
2021/08/29 08:56:01;;;;;;;;;;;20.40;72.30;;;;;;5004811;28;1902;-72
2021/08/29 08:58:27;;;;;;;;;;;20.40;72.30;;;;;;5012721;28;1088;-72
2021/08/29 09:00:52;;;;;;;;;;;20.40;72.30;;;;;;5012865;28;1063;-74
2021/08/29 09:03:19;;;;;;;;;;;20.40;72.20;;;;;;5005306;28;1277;-74
2021/08/29 09:05:44;;;;;;;;;;;20.40;72.20;;;;;;5000456;28;1076;-74
2021/08/29 09:08:10;;;;;;;;;;;20.40;72.20;;;;;;5018541;28;1100;-75
2021/08/29 09:10:35;;;;;;;;;;;20.40;72.20;;;;;;4993431;28;1387;-75
2021/08/29 09:13:01;;;;;;;;;;;20.50;72.30;;;;;;5006469;28;1345;-75
2021/08/29 09:15:27;;;;;;;;;;;20.40;72.30;;;;;;5005850;28;1306;-75
2021/08/29 09:17:52;;;;;;;;;;;20.50;72.30;;;;;;4988878;28;1948;-75
2021/08/29 09:20:28;;;;;;;;;;;20.50;72.30;;;;;;4998377;28;1125;-75
2021/08/29 09:23:00;;;;;;;;;;;20.50;72.30;;;;;;5004557;28;1271;-75
2021/08/29 09:25:29;;;;;;;;;;;20.50;72.30;;;;;;5010193;28;1131;-75
2021/08/29 09:27:55;;;;;;;;;;;20.40;72.20;;;;;;5016480;28;1088;-75
2021/08/29 09:30:21;;;;;;;;;;;20.50;72.30;;;;;;5004659;28;1190;-75
2021/08/29 09:32:46;;;;;;;;;;;20.40;72.20;;;;;;4990296;28;1345;-74
2021/08/29 09:35:12;;;;;;;;;;;20.50;72.30;;;;;;5016309;28;1069;-74
2021/08/29 09:37:37;;;;;;;;;;;20.50;72.30;;;;;;5003474;28;1964;-74
2021/08/29 09:40:12;;;;;;;;;;;20.50;72.30;;;;;;5016528;28;1080;-74
2021/08/29 09:42:44;;;;;;;;;;;20.50;72.30;;;;;;5016154;28;1264;-72
2021/08/29 09:45:18;;;;;;;;;;;20.50;72.30;;;;;;5016223;28;1063;-73
2021/08/29 09:47:43;;;;;;;;;;;20.40;72.20;;;;;;5012218;28;1128;-74
2021/08/29 09:50:09;;;;;;;;;;;20.50;72.30;;;;;;5016391;28;1082;-73
2021/08/29 09:52:34;;;;;;;;;;;20.50;72.30;;;;;;5012311;28;1351;-73
2021/08/29 09:55:00;;;;;;;;;;;20.50;72.30;;;;;;5020633;28;1080;-73
2021/08/29 09:57:25;;;;;;;;;;;20.50;72.30;;;;;;5007209;28;1910;-73
2021/08/29 09:59:51;;;;;;;;;;;20.50;72.30;;;;;;4996856;28;1236;-72
2021/08/29 10:02:17;;;;;;;;;;;20.50;72.30;;;;;;4984484;28;1344;-74
2021/08/29 10:04:42;;;;;;;;;;;20.40;72.20;;;;;;5006925;28;1069;-74
2021/08/29 10:07:12;;;;;;;;;;;20.50;72.30;;;;;;5008626;28;1171;-75
2021/08/29 10:09:37;;;;;;;;;;;20.50;72.30;;;;;;5015425;28;1059;-74
2021/08/29 10:12:03;;;;;;;;;;;20.40;72.20;;;;;;5010709;28;1836;-74
2021/08/29 10:14:28;;;;;;;;;;;20.50;72.40;;;;;;4996406;28;1206;-75
2021/08/29 10:16:54;;;;;;;;;;;20.40;72.30;;;;;;4996653;28;1914;-74
2021/08/29 10:19:19;;;;;;;;;;;20.40;72.30;;;;;;4980026;28;1358;-74
2021/08/29 10:21:45;;;;;;;;;;;20.40;72.30;;;;;;4996069;28;1747;-75
2021/08/29 10:24:10;;;;;;;;;;;20.40;72.40;;;;;;4996505;28;1264;-75
2021/08/29 10:26:36;;;;;;;;;;;20.40;72.30;;;;;;4996925;28;1316;-76
2021/08/29 10:29:08;;;;;;;;;;;20.50;72.40;;;;;;4996582;28;1284;-74
2021/08/29 10:31:35;;;;;;;;;;;20.40;72.30;;;;;;4981082;28;1324;-73
2021/08/29 10:34:01;;;;;;;;;;;20.40;72.20;;;;;;4993718;28;1249;-73
2021/08/29 10:36:27;;;;;;;;;;;20.50;72.30;;;;;;5012271;28;1915;-75
2021/08/29 10:38:52;;;;;;;;;;;20.40;72.20;;;;;;4996351;28;1268;-73
2021/08/29 10:41:20;;;;;;;;;;;20.50;72.30;;;;;;4996116;28;1133;-73
2021/08/29 10:43:46;;;;;;;;;;;20.50;72.30;;;;;;4995723;28;1303;-74
2021/08/29 10:46:14;;;;;;;;;;;20.50;72.30;;;;;;4995157;28;1235;-73
2021/08/29 10:48:40;;;;;;;;;;;20.50;72.30;;;;;;5011531;28;1300;-74
2021/08/29 10:51:06;;;;;;;;;;;20.50;72.30;;;;;;4992860;28;1171;-74
2021/08/29 10:53:35;;;;;;;;;;;20.50;72.30;;;;;;5002708;28;1279;-75
2021/08/29 10:56:19;;;;;;;;;;;20.50;72.30;;;;;;4995936;28;1902;-75
2021/08/29 10:58:46;;;;;;;;;;;20.50;72.30;;;;;;5001601;28;912;-74
2021/08/29 11:01:30;;;;;;;;;;;20.40;72.30;;;;;;4987887;28;921;-76
2021/08/29 11:03:56;;;;;;;;;;;20.50;72.30;;;;;;5014010;28;1273;-75
2021/08/29 11:06:40;;;;;;;;;;;20.50;72.30;;;;;;5021523;28;1392;-75
2021/08/29 11:09:24;;;;;;;;;;;20.50;72.30;;;;;;5003469;28;944;-75
2021/08/29 11:11:49;;;;;;;;;;;20.50;72.30;;;;;;5011213;28;1344;-75
2021/08/29 11:14:34;;;;;;;;;;;20.50;72.40;;;;;;4977776;28;1584;-75
2021/08/29 11:17:08;;;;;;;;;;;20.50;72.30;;;;;;5000806;28;1902;-75
2021/08/29 11:19:37;;;;;;;;;;;20.50;72.40;;;;;;5002560;28;1076;-75
2021/08/29 11:22:03;;;;;;;;;;;20.50;72.40;;;;;;5000252;28;1263;-74
2021/08/29 11:24:54;;;;;;;;;;;20.50;72.30;;;;;;5008922;28;1100;-75
2021/08/29 11:27:43;;;;;;;;;;;20.50;72.30;;;;;;5002350;28;1376;-74
2021/08/29 11:30:15;;;;;;;;;;;20.50;72.40;;;;;;4977456;28;1174;-74
2021/08/29 11:32:51;;;;;;;;;;;20.50;72.50;;;;;;5009490;28;1347;-74
2021/08/29 11:35:17;;;;;;;;;;;20.50;72.40;;;;;;5014090;28;1271;-74
2021/08/29 11:37:59;;;;;;;;;;;20.50;72.40;;;;;;4989228;28;2007;-74
2021/08/29 11:40:25;;;;;;;;;;;20.50;72.30;;;;;;4998938;28;1315;-74
2021/08/29 11:43:12;;;;;;;;;;;20.50;72.30;;;;;;5013784;28;1331;-74
2021/08/29 11:45:37;;;;;;;;;;;20.50;72.30;;;;;;5012586;28;1082;-74
2021/08/29 11:48:03;;;;;;;;;;;20.50;72.30;;;;;;4985266;28;1049;-74
2021/08/29 11:50:29;;;;;;;;;;;20.50;72.40;;;;;;4994500;28;1179;-75
2021/08/29 11:52:57;;;;;;;;;;;20.50;72.40;;;;;;4976912;28;1301;-74
2021/08/29 11:55:22;;;;;;;;;;;20.40;72.40;;;;;;5009970;28;1154;-73
2021/08/29 11:57:48;;;;;;;;;;;20.50;72.60;;;;;;5004893;28;1894;-74
2021/08/29 12:00:14;;;;;;;;;;;20.50;72.90;;;;;;4976776;28;1309;-73
2021/08/29 12:02:42;;;;;;;;;;;20.50;72.90;;;;;;4985780;28;1317;-74
2021/08/29 12:05:12;;;;;;;;;;;20.50;72.80;;;;;;4996189;28;1293;-74
2021/08/29 12:07:37;;;;;;;;;;;20.50;73.00;;;;;;5020677;28;1072;-75
2021/08/29 12:10:04;;;;;;;;;;;20.50;73.40;;;;;;5010633;28;1192;-73
2021/08/29 12:12:29;;;;;;;;;;;20.60;73.90;;;;;;4980372;28;2052;-74
2021/08/29 12:14:55;;;;;;;;;;;20.70;74.10;;;;;;4997494;28;2154;-71
2021/08/29 12:17:20;;;;;;;;;;;20.80;74.30;;;;;;4995345;28;1966;-72
2021/08/29 12:19:50;;;;;;;;;;;20.90;74.90;;;;;;5010624;28;1272;-73
2021/08/29 12:22:15;;;;;;;;;;;21.00;75.20;;;;;;4997268;28;1348;-73
2021/08/29 12:24:41;;;;;;;;;;;21.00;74.90;;;;;;5011456;28;1317;-73
2021/08/29 12:27:08;;;;;;;;;;;21.10;74.60;;;;;;4995527;28;1171;-74
2021/08/29 12:29:42;;;;;;;;;;;21.10;74.60;;;;;;5012164;28;1284;-75
2021/08/29 12:32:08;;;;;;;;;;;21.10;73.90;;;;;;5013255;28;1300;-75
2021/08/29 12:34:34;;;;;;;;;;;21.20;73.80;;;;;;4993168;28;1210;-73
2021/08/29 12:37:03;;;;;;;;;;;21.20;73.60;;;;;;5013044;28;1914;-72
2021/08/29 12:39:28;;;;;;;;;;;21.20;74.20;;;;;;5012875;28;1175;-74
2021/08/29 12:41:54;;;;;;;;;;;21.20;73.30;;;;;;5012925;28;1294;-74
2021/08/29 12:44:31;;;;;;;;;;;21.20;72.70;;;;;;5011039;28;1314;-74
2021/08/29 12:46:56;;;;;;;;;;;21.20;72.40;;;;;;4995254;28;1269;-73
2021/08/29 12:49:21;;;;;;;;;;;21.20;72.40;;;;;;4993040;28;1233;-73
2021/08/29 12:51:50;;;;;;;;;;;21.20;72.30;;;;;;4997290;28;1291;-74
2021/08/29 12:54:15;;;;;;;;;;;21.20;72.30;;;;;;4977289;28;1376;-75
2021/08/29 12:56:41;;;;;;;;;;;21.20;72.30;;;;;;5012797;28;1902;-75
2021/08/29 12:59:06;;;;;;;;;;;21.20;72.30;;;;;;4994193;28;1098;-74
2021/08/29 13:01:32;;;;;;;;;;;21.20;73.10;;;;;;5013023;28;1077;-75
2021/08/29 13:03:57;;;;;;;;;;;21.20;73.30;;;;;;5012591;28;1312;-75
2021/08/29 13:06:23;;;;;;;;;;;21.30;73.50;;;;;;5007726;28;1120;-74
2021/08/29 13:08:49;;;;;;;;;;;21.30;73.40;;;;;;5007590;28;1138;-75
2021/08/29 13:11:21;;;;;;;;;;;21.30;72.70;;;;;;5005860;28;1057;-75
2021/08/29 13:13:57;;;;;;;;;;;21.30;72.60;;;;;;4979409;28;1272;-74
2021/08/29 13:16:36;;;;;;;;;;;21.40;73.00;;;;;;4978580;28;1956;-75
2021/08/29 13:19:01;;;;;;;;;;;21.40;73.00;;;;;;5012005;28;1061;-73
2021/08/29 13:21:27;;;;;;;;;;;21.40;73.20;;;;;;5012146;28;1176;-74
2021/08/29 13:23:52;;;;;;;;;;;21.40;72.70;;;;;;5012314;28;1294;-74
2021/08/29 13:26:18;;;;;;;;;;;21.30;72.90;;;;;;4996138;28;1318;-73
2021/08/29 13:29:04;;;;;;;;;;;21.30;72.90;;;;;;4993026;28;1324;-74
2021/08/29 13:31:33;;;;;;;;;;;21.30;73.10;;;;;;5012180;28;1180;-74
2021/08/29 13:34:02;;;;;;;;;;;21.30;74.00;;;;;;5012699;28;2052;-75
2021/08/29 13:36:28;;;;;;;;;;;21.30;74.50;;;;;;4986070;28;1906;-74
2021/08/29 13:38:53;;;;;;;;;;;21.30;74.50;;;;;;5001235;28;1061;-74
2021/08/29 13:41:19;;;;;;;;;;;21.30;74.30;;;;;;5005915;28;818;-75
2021/08/29 13:43:44;;;;;;;;;;;21.30;74.40;;;;;;5002605;28;1286;-75
2021/08/29 13:46:13;;;;;;;;;;;21.30;75.20;;;;;;5012421;28;2147;-72
2021/08/29 13:48:38;;;;;;;;;;;21.30;75.90;;;;;;4994788;28;1267;-72
2021/08/29 13:51:05;;;;;;;;;;;21.40;75.50;;;;;;4994860;28;1286;-73
2021/08/29 13:53:31;;;;;;;;;;;21.40;76.10;;;;;;5012420;28;1355;-73
2021/08/29 13:55:57;;;;;;;;;;;21.40;77.20;;;;;;5000080;28;1898;-73
2021/08/29 13:58:23;;;;;;;;;;;21.40;74.50;;;;;;4995388;28;1356;-72
2021/08/29 14:00:49;;;;;;;;;;;21.40;73.90;;;;;;5012186;28;1280;-73
2021/08/29 14:03:14;;;;;;;;;;;21.40;74.00;;;;;;4994833;28;1679;-74
2021/08/29 14:05:41;;;;;;;;;;;21.30;74.00;;;;;;4995211;28;1369;-74
2021/08/29 14:08:06;;;;;;;;;;;21.20;74.00;;;;;;5019655;28;1358;-73
2021/08/29 14:10:32;;;;;;;;;;;21.20;73.90;;;;;;5004296;28;1318;-73
2021/08/29 14:12:57;;;;;;;;;;;21.20;74.50;;;;;;5010530;28;1426;-78
2021/08/29 14:15:23;;;;;;;;;;;21.20;77.00;;;;;;4992216;28;1579;-75
2021/08/29 14:17:48;;;;;;;;;;;21.30;78.10;;;;;;4998179;28;1898;-75
2021/08/29 14:20:14;;;;;;;;;;;21.30;77.60;;;;;;5015543;28;1435;-75
2021/08/29 14:22:40;;;;;;;;;;;21.40;78.10;;;;;;5016293;28;1275;-72
2021/08/29 14:25:06;;;;;;;;;;;21.40;78.20;;;;;;5009094;28;1172;-75
2021/08/29 14:27:31;;;;;;;;;;;21.50;77.40;;;;;;4996400;28;1084;-75